Weather at Murray Bridge Airport

Public forecast

Using degrees Celsius for public forecast. Weather courtesy of forecast.io.

Closest aviation weather report (METAR) to Murray Bridge Airport

Closest report is Adelaide International Airport, 35.0 nm (64.8 km) WNW. Retrieved 2021/01/18 07:30 UTC (0 seconds ago):

YPAD 180730Z 22020KT 9999 FEW040 21/12 Q1019

Closest aviation forecast (TAF) to Murray Bridge Airport

Closest forecast is Adelaide International Airport, 35.0 nm (64.8 km) WNW. Retrieved 2021/01/18 09:00 UTC (0 seconds ago):

TAF YPAD 180756Z 1809/1912 22018KT CAVOK BECMG 1809/1811 16010KT 9999 FEW015 FM182100 13010KT CAVOK FM190200 20012KT CAVOK FM190700 16014KT CAVOK